METAR Data
IDs: Format: Raw Decoded Include TAF

Data at: 0205 UTC 12 May 2021

KDCY 120155Z AUTO 02008KT 10SM CLR 12/02 A3031 RMK AO2 T01160016
KDCY 120135Z AUTO 02007KT 10SM CLR 12/02 A3030 RMK AO2 T01180016
KDCY 120115Z AUTO 03006KT 10SM CLR 12/01 A3030 RMK AO2 T01200013
KDCY 120055Z AUTO 02007KT 10SM CLR 12/01 A3029 RMK AO2 T01210011
KDCY 120035Z AUTO 02007KT 10SM CLR 13/01 A3028 RMK AO2 T01250009
KDCY 120015Z AUTO 02009KT 10SM CLR 13/01 A3027 RMK AO2 T01280008
KDCY 112355Z AUTO 02008KT 10SM SCT120 13/00 A3026 RMK AO2 T01310003 10165 20131
KDCY 112335Z AUTO 02008KT 10SM BKN120 13/01 A3025 RMK AO2 T01340005
KDCY 112315Z AUTO 02009G14KT 10SM OVC120 14/01 A3025 RMK AO2 T01350006
KDCY 112255Z AUTO 02008KT 10SM OVC120 14/00 A3025 RMK AO2 T01360004
KDCY 112235Z AUTO 03009KT 10SM OVC120 14/00 A3025 RMK AO2 T01381001
KDCY 112215Z AUTO 02007KT 10SM OVC120 14/00 A3024 RMK AO2 T01391001
KDCY 112155Z AUTO 02011KT 10SM OVC120 14/00 A3023 RMK AO2 T01420000
KDCY 112135Z AUTO 01012G16KT 10SM OVC120 14/00 A3023 RMK AO2 T01420004
KDCY 112115Z AUTO 01013KT 10SM BKN110 15/00 A3023 RMK AO2 T01450004
KDCY 112055Z AUTO 36013G20KT 10SM SCT110 15/02 A3024 RMK AO2 T01460015
KDCY 112035Z AUTO 01012G17KT 10SM SCT120 15/02 A3024 RMK AO2 T01510022
KDCY 112015Z AUTO 02010KT 10SM CLR 16/02 A3025 RMK AO2 T01570020
KDCY 111955Z AUTO 02007KT 10SM CLR 16/01 A3025 RMK AO2 T01590011
KDCY 111935Z AUTO 02007G15KT 10SM CLR 16/01 A3025 RMK AO2 T01640013
KDCY 111915Z AUTO 02012G15KT 10SM CLR 16/01 A3024 RMK AO2 T01600013
KDCY 111900Z AUTO 02011KT 10SM CLR 16/01 A3025 RMK AO2 T01600013
KDCY 111835Z AUTO 01010G16KT 10SM CLR 16/02 A3025 RMK AO2 T01610017
KDCY 111815Z AUTO 04008KT 10SM CLR 16/03 A3026 RMK AO2 T01590029
KDCY 111755Z AUTO 01009G14KT 10SM CLR 16/02 A3027 RMK AO2 T01560022 10158 20075
KDCY 111735Z AUTO 03012G16KT 10SM CLR 16/04 A3027 RMK AO2 T01560040
KDCY 111715Z AUTO 02011G16KT 10SM CLR 16/04 A3028 RMK AO2 T01550037
KDCY 111655Z AUTO 02010G15KT 10SM CLR 15/03 A3028 RMK AO2 T01500032
KDCY 111635Z AUTO 02010G15KT 10SM CLR 15/05 A3028 RMK AO2 T01480048
KDCY 111615Z AUTO 05008KT 10SM CLR 14/04 A3027 RMK AO2 T01430041
KDCY 111555Z AUTO 02010KT 10SM CLR 15/05 A3027 RMK AO2 T01450050
KDCY 111535Z AUTO 04010G14KT 10SM SCT029 14/07 A3027 RMK AO2 T01430066
KDCY 111515Z AUTO 05008KT 10SM SCT027 14/07 A3027 RMK AO2 T01350068
KDCY 111455Z AUTO 04006KT 10SM CLR 13/07 A3027 RMK AO2 T01290067
KDCY 111435Z AUTO 02008KT 10SM CLR 13/07 A3027 RMK AO2 T01300070
KDCY 111415Z AUTO 05009KT 10SM SCT013 SCT019 12/07 A3027 RMK AO2 T01200072
KDCY 111355Z AUTO 04005KT 10SM SCT013 11/08 A3027 RMK AO2 T01100076
KDCY 111335Z AUTO 04005KT 10SM BKN013 11/08 A3026 RMK AO2 T01070076
KDCY 111315Z AUTO 06007KT 10SM CLR 10/07 A3026 RMK AO2 T01020073
KDCY 111255Z AUTO 05006KT 10SM CLR 10/08 A3025 RMK AO2 T00990080
KDCY 111235Z AUTO 03005KT 10SM CLR 09/09 A3025 RMK AO2 T00900085
KDCY 111215Z AUTO 01005KT 10SM CLR 08/08 A3024 RMK AO2 T00820081
KDCY 111155Z AUTO 01003KT 10SM CLR 08/08 A3023 RMK AO2 T00750075 10088 20061
KDCY 111135Z AUTO 01003KT 10SM CLR 07/07 A3023 RMK AO2 T00710070
KDCY 111115Z AUTO 35003KT 10SM CLR 06/06 A3022 RMK AO2 T00640062
KDCY 111055Z AUTO 36004KT 10SM CLR 07/06 A3021 RMK AO2 T00650063
KDCY 111035Z AUTO 00000KT 10SM CLR 06/06 A3020 RMK AO2 T00640063
KDCY 111015Z AUTO 00000KT 10SM CLR 07/07 A3020 RMK AO2 T00660065
KDCY 110955Z AUTO 00000KT 10SM CLR 07/07 A3020 RMK AO2 T00680066
KDCY 110935Z AUTO 00000KT 10SM CLR 07/06 A3020 RMK AO2 T00720060
KDCY 110915Z AUTO 01005KT 10SM CLR 07/06 A3020 RMK AO2 T00740058
KDCY 110855Z AUTO 33004KT 10SM CLR 08/06 A3019 RMK AO2 T00750056
KDCY 110835Z AUTO 33003KT 10SM CLR 08/06 A3018 RMK AO2 T00770056
KDCY 110815Z AUTO 00000KT 10SM CLR 08/06 A3017 RMK AO2 T00780055
KDCY 110755Z AUTO 00000KT 10SM CLR 08/06 A3017 RMK AO2 T00820056
KDCY 110735Z AUTO 00000KT 10SM CLR 08/06 A3017 RMK AO2 T00760061
KDCY 110715Z AUTO 00000KT 10SM CLR 08/06 A3016 RMK AO2 T00790062
KDCY 110655Z AUTO 00000KT 10SM CLR 08/06 A3016 RMK AO2 T00800061
KDCY 110635Z AUTO 00000KT 10SM CLR 08/06 A3017 RMK AO2 T00800062
KDCY 110615Z AUTO 00000KT 10SM CLR 09/06 A3017 RMK AO2 T00860062
KDCY 110555Z AUTO 00000KT 10SM CLR 08/07 A3017 RMK AO2 T00820070 10144 20082 401630033
KDCY 110535Z AUTO 00000KT 10SM CLR 08/07 A3017 RMK AO2 T00830068
KDCY 110515Z AUTO 00000KT 10SM CLR 09/06 A3017 RMK AO2 T00900062
KDCY 110455Z AUTO 00000KT 10SM CLR 09/07 A3016 RMK AO2 T00910067
KDCY 110435Z AUTO 00000KT 10SM CLR 10/06 A3016 RMK AO2 T01010062
KDCY 110415Z AUTO 00000KT 10SM CLR 11/07 A3016 RMK AO2 T01060072
KDCY 110355Z AUTO 00000KT 10SM CLR 11/07 A3015 RMK AO2 T01130068
KDCY 110335Z AUTO 00000KT 10SM CLR 12/07 A3016 RMK AO2 T01150070
KDCY 110315Z AUTO 31003KT 10SM CLR 12/08 A3016 RMK AO2 T01170077
KDCY 110255Z AUTO 31003KT 10SM CLR 12/09 A3016 RMK AO2 T01170087
KDCY 110235Z AUTO 00000KT 10SM CLR 12/09 A3015 RMK AO2 T01190089
KDCY 110215Z AUTO 00000KT 10SM CLR 12/08 A3015 RMK AO2 T01220081
KDCY 110155Z AUTO 32003KT 10SM CLR 13/08 A3015 RMK AO2 T01250076
KDCY 110135Z AUTO 00000KT 10SM CLR 13/07 A3015 RMK AO2 T01280071
KDCY 110115Z AUTO 00000KT 10SM CLR 13/07 A3015 RMK AO2 T01330067
KDCY 110055Z AUTO 00000KT 10SM CLR 13/08 A3014 RMK AO2 T01310080
KDCY 110035Z AUTO 00000KT 10SM CLR 14/07 A3012 RMK AO2 T01360069
KDCY 110015Z AUTO 35003KT 10SM CLR 14/06 A3012 RMK AO2 T01410060
KDCY 102355Z AUTO 33004KT 10SM CLR 14/06 A3013 RMK AO2 T01440061 10163 20143
KDCY 102335Z AUTO 33004KT 10SM CLR 15/05 A3012 RMK AO2 T01460054
KDCY 102315Z AUTO 34005KT 10SM CLR 15/05 A3012 RMK AO2 T01470049
KDCY 102255Z AUTO 36004KT 10SM CLR 15/06 A3011 RMK AO2 T01500058
KDCY 102235Z AUTO 01006KT 10SM CLR 15/04 A3011 RMK AO2 T01510044
KDCY 102215Z AUTO 01006KT 10SM CLR 15/04 A3011 RMK AO2 T01530040
KDCY 102155Z AUTO 01006KT 10SM CLR 16/05 A3012 RMK AO2 T01550051
KDCY 102135Z AUTO 01004KT 10SM CLR 16/04 A3012 RMK AO2 T01550036
KDCY 102115Z AUTO 32007KT 10SM CLR 16/04 A3013 RMK AO2 T01580044
KDCY 102055Z AUTO 33007KT 10SM CLR 16/05 A3014 RMK AO2 T01600045
KDCY 102035Z AUTO 30005KT 10SM CLR 16/04 A3014 RMK AO2 T01600040
KDCY 102015Z AUTO 34008KT 10SM CLR 16/04 A3014 RMK AO2 T01590043
KDCY 101955Z AUTO 35006KT 10SM SCT050 16/05 A3013 RMK AO2 T01620051
KDCY 101935Z AUTO 32006KT 10SM SCT050 16/04 A3014 RMK AO2 T01590035
KDCY 101915Z AUTO 01009KT 10SM CLR 16/04 A3014 RMK AO2 T01570043
KDCY 101855Z AUTO 01004KT 10SM CLR 15/05 A3014 RMK AO2 T01540045
KDCY 101835Z AUTO 34007KT 10SM SCT050 15/05 A3014 RMK AO2 T01520050
KDCY 101815Z AUTO 00000KT 10SM SCT045 15/03 A3015 RMK AO2 T01450034
KDCY 101755Z AUTO 00000KT 10SM BKN042 BKN048 15/04 A3015 RMK AO2 T01450042 10147 20047
KDCY 101735Z AUTO 00000KT 10SM BKN042 14/04 A3015 RMK AO2 T01400044
KDCY 101715Z AUTO 01003KT 10SM BKN040 BKN047 14/04 A3015 RMK AO2 T01370040
KDCY 101655Z AUTO 00000KT 10SM SCT038 13/04 A3015 RMK AO2 T01320038
KDCY 101635Z AUTO 07005KT 10SM CLR 13/05 A3015 RMK AO2 T01310046
KDCY 101615Z AUTO 03007KT 350V050 10SM CLR 13/05 A3015 RMK AO2 T01270049
KDCY 101555Z AUTO 04003KT 10SM CLR 12/05 A3016 RMK AO2 T01220045
KDCY 101535Z AUTO 04005KT 10SM CLR 12/05 A3016 RMK AO2 T01160045
KDCY 101515Z AUTO 01005KT 10SM CLR 11/05 A3016 RMK AO2 T01120048
KDCY 101455Z AUTO 05006KT 10SM CLR 11/05 A3015 RMK AO2 T01060047
KDCY 101435Z AUTO 01008KT 10SM CLR 10/05 A3015 RMK AO2 T01000051
KDCY 101415Z AUTO 36009KT 10SM CLR 09/05 A3015 RMK AO2 T00940050